Data for 11/12/2015

Time Sea-Level Adjusted Pressure Absolute Pressure Temperature Relative Humidity Dew Point   
(mb) (inHg) (mb) (inHg) (C) (F) (%) (C) (F)
00:05 1021 30.15 851 25.13 0 32.1 70 -4.9 23.3
00:10 1021 30.15 851 25.13 0 32.1 69 -4.9 23.2
00:15 1021 30.15 851 25.13 -0 32 69 -5.1 22.8
00:20 1021 30.15 851 25.13 -0.1 31.9 69 -5.1 22.9
00:25 1021 30.15 851 25.13 -0.2 31.7 70 -5 22.9
00:30 1022 30.18 851 25.13 -0.2 31.6 70 -5.1 22.8
00:35 1022 30.18 851 25.13 -0.2 31.6 70 -5.1 22.8
00:40 1022 30.18 851 25.13 -0.3 31.4 70 -5.1 22.9
00:45 1022 30.18 851 25.13 -0.4 31.3 70 -5.1 22.8
00:50 1022 30.18 851 25.13 -0.4 31.3 70 -5.3 22.5
00:55 1022 30.18 851 25.13 -0.3 31.4 70 -5.1 22.8
01:00 1022 30.18 851 25.13 -0.4 31.2 71 -5.1 22.8
01:05 1022 30.18 851 25.13 -0.5 31 71 -5.1 22.8
01:10 1022 30.18 851 25.13 -0.6 30.8 71 -5.3 22.5
01:15 1022 30.18 851 25.13 -0.7 30.8 71 -5.2 22.6
01:20 1022 30.18 851 25.13 -0.7 30.7 72 -5.1 22.8
01:25 1022 30.18 851 25.13 -1 30.2 74 -5.1 22.8
01:30 1022 30.18 851 25.13 -1.3 29.6 74 -5.3 22.4
01:35 1022 30.18 851 25.13 -1.4 29.5 75 -5.3 22.4
01:40 1022 30.18 851 25.13 -1.4 29.5 75 -5.3 22.4
01:45 1022 30.18 851 25.13 -1.3 29.7 74 -5.4 22.3
01:50 1022 30.18 851 25.13 -1.2 29.9 73 -5.3 22.4
01:55 1022 30.18 851 25.13 -1.1 30 73 -5.4 22.4
02:00 1022 30.18 851 25.13 -1.1 30 74 -5.2 22.6
02:05 1022 30.18 852 25.16 -1.1 30 73 -5.4 22.2
02:10 1022 30.18 852 25.16 -1.1 30.1 72 -5.4 22.2
02:15 1022 30.18 852 25.16 -1 30.1 72 -5.5 22.2
02:20 1022 30.18 851 25.13 -1 30.2 71 -5.5 22
02:25 1022 30.18 851 25.13 -1 30.2 72 -5.5 22.1
02:30 1022 30.18 851 25.13 -1.1 30.1 73 -5.4 22.3
02:35 1022 30.18 852 25.16 -1.2 29.9 72 -5.6 21.9
02:40 1022 30.18 851 25.13 -1.1 30 71 -5.8 21.5
02:45 1022 30.18 852 25.16 -1 30.1 71 -5.6 21.8
02:50 1022 30.18 852 25.16 -1 30.2 71 -5.6 21.9
02:55 1022 30.18 852 25.16 -1 30.2 70 -5.8 21.6
03:00 1022 30.18 852 25.16 -0.9 30.4 69 -5.8 21.5
03:05 1023 30.21 852 25.16 -1 30.2 70 -5.8 21.6
03:10 1023 30.21 852 25.16 -1 30.2 69 -6 21.1
03:15 1023 30.21 852 25.16 -0.9 30.4 69 -5.9 21.5
03:20 1023 30.21 852 25.16 -0.8 30.5 69 -5.9 21.4
03:25 1023 30.21 852 25.16 -0.9 30.4 69 -5.8 21.5
03:30 1023 30.21 852 25.16 -0.9 30.4 67 -6.2 20.8
03:35 1023 30.21 852 25.16 -0.9 30.5 68 -6.1 21
03:40 1023 30.21 852 25.16 -1 30.3 69 -6 21.2
03:45 1023 30.21 852 25.16 -1.2 29.9 69 -6.2 20.9
03:50 1023 30.21 852 25.16 -1.2 29.8 69 -6.1 20.9
03:55 1023 30.21 852 25.16 -1.1 30 69 -6.2 20.9
04:00 1023 30.21 852 25.16 -1 30.2 68 -6.3 20.7
04:05 1023 30.21 852 25.16 -1 30.3 67 -6.3 20.7
04:10 1023 30.21 852 25.16 -0.9 30.5 66 -6.4 20.5
04:15 1023 30.21 852 25.16 -0.8 30.6 66 -6.4 20.5
04:20 1023 30.21 852 25.16 -0.8 30.6 66 -6.3 20.6
04:25 1023 30.21 852 25.16 -0.8 30.5 67 -6.3 20.7
04:30 1023 30.21 852 25.16 -0.8 30.6 67 -6.3 20.7
04:35 1023 30.21 852 25.16 -0.8 30.5 67 -6.2 20.8
04:40 1023 30.21 852 25.16 -0.9 30.5 67 -6.2 20.8
04:45 1023 30.21 852 25.16 -0.9 30.4 68 -6.1 21
04:50 1023 30.21 852 25.16 -1 30.3 68 -6.1 21
04:55 1023 30.21 852 25.16 -1 30.1 69 -6 21.1
05:00 1023 30.21 852 25.16 -1.1 30 69 -6.1 21
05:05 1023 30.21 852 25.16 -1.1 30 69 -6.1 21
05:10 1023 30.21 852 25.16 -1.2 29.9 69 -6.1 21.1
05:15 1023 30.21 852 25.16 -1.2 29.9 70 -6 21.2
05:20 1023 30.21 852 25.16 -1.2 29.8 70 -5.9 21.3
05:25 1023 30.21 852 25.16 -1.2 29.8 71 -5.9 21.4
05:30 1023 30.21 852 25.16 -1.3 29.7 71 -5.9 21.4
05:35 1023 30.21 852 25.16 -1.4 29.6 71 -5.9 21.4
05:40 1023 30.21 852 25.16 -1.4 29.4 71 -6 21.2
05:45 1023 30.21 852 25.16 -1.4 29.4 70 -6.2 20.9
05:50 1023 30.21 852 25.16 -1.4 29.5 70 -6.2 20.9
05:55 1023 30.21 852 25.16 -1.4 29.5 71 -6 21.2
06:00 1023 30.21 852 25.16 -1.4 29.6 70 -6.1 21
06:05 1023 30.21 853 25.19 -1.4 29.5 71 -6 21.1
06:10 1023 30.21 853 25.19 -1.3 29.6 70 -6.1 21.1
06:15 1023 30.21 853 25.19 -1.3 29.6 70 -6.1 21
06:20 1023 30.21 853 25.19 -1.3 29.7 69 -6.3 20.6
06:25 1023 30.21 853 25.19 -1.2 29.8 69 -6.1 21
06:30 1024 30.24 853 25.19 -1.2 29.8 70 -6.1 21.1
06:35 1024 30.24 853 25.19 -1.2 29.8 69 -6.3 20.7
06:40 1024 30.24 853 25.19 -1.2 29.9 69 -6.1 21
06:45 1024 30.24 853 25.19 -1.2 29.9 68 -6.3 20.7
06:50 1024 30.24 853 25.19 -1.2 29.9 68 -6.3 20.7
06:55 1024 30.24 853 25.19 -1.2 29.8 69 -6.2 20.8
07:00 1024 30.24 853 25.19 -1.3 29.6 69 -6.3 20.7
07:05 1024 30.24 853 25.19 -1.5 29.4 70 -6.3 20.7
07:10 1024 30.24 853 25.19 -1.6 29.1 71 -6.3 20.7
07:15 1024 30.24 853 25.19 -1.7 29 70 -6.4 20.4
07:20 1024 30.24 853 25.19 -1.7 29 70 -6.5 20.4
07:25 1024 30.24 853 25.19 -1.7 28.9 71 -6.4 20.5
07:30 1024 30.24 853 25.19 -1.8 28.7 70 -6.5 20.3
07:35 1024 30.24 853 25.19 -2.1 28.2 73 -6.4 20.6
07:40 1024 30.24 853 25.19 -2.5 27.5 73 -6.7 20
07:45 1024 30.24 853 25.19 -2.4 27.7 73 -6.7 20
07:50 1024 30.24 853 25.19 -2.2 28.1 70 -7 19.4
07:55 1024 30.24 853 25.19 -2.1 28.3 69 -7 19.4
08:00 1024 30.24 853 25.19 -2.3 27.9 70 -7 19.5
08:05 1024 30.24 853 25.19 -2.7 27.2 71 -7.2 19
08:10 1024 30.24 853 25.19 -3.1 26.4 71 -7.6 18.2
08:15 1024 30.24 853 25.19 -3.2 26.2 71 -7.7 18.2
08:20 1024 30.24 853 25.19 -2.9 26.7 71 -7.5 18.5
08:25 1024 30.24 853 25.19 -2.8 26.9 70 -7.5 18.5
08:30 1024 30.24 853 25.19 -2.9 26.7 71 -7.5 18.4
08:35 1024 30.24 853 25.19 -2.7 27.1 70 -7.5 18.5
08:40 1024 30.24 853 25.19 -2.6 27.4 69 -7.4 18.7
08:45 1024 30.24 853 25.19 -2.6 27.4 69 -7.4 18.7
08:50 1024 30.24 853 25.19 -2.4 27.6 69 -7.4 18.7
08:55 1024 30.24 853 25.19 -2 28.3 67 -7.3 18.9
09:00 1024 30.24 854 25.22 -1.7 29 66 -7.3 18.9
09:05 1024 30.24 854 25.22 -1.7 29 66 -7.3 18.9
09:10 1024 30.24 854 25.22 -1.8 28.7 66 -7.3 18.8
09:15 1025 30.27 854 25.22 -1.8 28.7 66 -7.3 18.8
09:20 1025 30.27 854 25.22 -2 28.4 67 -7.4 18.7
09:25 1025 30.27 854 25.22 -2.4 27.7 67 -7.6 18.3
09:30 1025 30.27 854 25.22 -2.7 27.2 68 -7.8 18
09:35 1025 30.27 854 25.22 -2.7 27.2 65 -8.3 17
09:40 1025 30.27 854 25.22 -2.4 27.6 63 -8.6 16.5
09:45 1025 30.27 854 25.22 -2.4 27.7 60 -9.2 15.5
09:50 1025 30.27 854 25.22 -2.3 27.9 58 -9.5 14.9
09:55 1025 30.27 854 25.22 -2 28.3 57 -9.5 14.9
10:00 1025 30.27 854 25.22 -1.9 28.5 56 -9.5 14.9
10:05 1025 30.27 854 25.22 -2.1 28.3 57 -9.4 15.1
10:10 1025 30.27 854 25.22 -1.9 28.5 56 -9.5 14.9
10:15 1025 30.27 854 25.22 -1.9 28.6 57 -9.3 15.2
10:20 1025 30.27 854 25.22 -1.7 28.9 54 -9.7 14.5
10:25 1025 30.27 854 25.22 -1.2 29.9 52 -9.9 14.2
10:30 1025 30.27 855 25.25 -0.3 31.5 48 -9.9 14.2
10:35 1025 30.27 855 25.25 0.7 33.3 46 -9.7 14.5
10:40 1025 30.27 854 25.22 1.3 34.3 46 -9.2 15.5
10:45 1025 30.27 854 25.22 1.5 34.6 44 -9.5 14.9
10:50 1025 30.27 854 25.22 1.4 34.5 44 -9.5 15
10:55 1025 30.27 854 25.22 1.5 34.8 44 -9.4 15
11:00 1025 30.27 854 25.22 1.9 35.4 43 -9.3 15.2
11:05 1025 30.27 854 25.22 2 35.6 44 -9.2 15.5
11:10 1025 30.27 854 25.22 2.1 35.8 43 -9.2 15.5
11:15 1025 30.27 854 25.22 2.1 35.7 43 -9.2 15.4
11:20 1025 30.27 854 25.22 2.3 36.1 42 -9.4 15
11:25 1025 30.27 855 25.25 1.5 34.8 45 -9.1 15.6
11:30 1025 30.27 855 25.25 1.8 35.2 43 -9.5 14.9
11:35 1025 30.27 855 25.25 2.1 35.8 42 -9.4 15.1
11:40 1025 30.27 855 25.25 2.6 36.6 40 -9.8 14.3
11:45 1025 30.27 855 25.25 2.5 36.6 40 -9.6 14.7
11:50 1025 30.27 855 25.25 1.8 35.3 41 -10.2 13.6
11:55 1025 30.27 855 25.25 1.7 35.1 41 -10.3 13.5
12:00 1025 30.27 854 25.22 2.2 35.9 39 -10.4 13.2
12:05 1025 30.27 855 25.25 2.5 36.5 40 -9.7 14.5
12:10 1025 30.27 855 25.25 2.3 36.2 39 -10.1 13.8
12:15 1025 30.27 854 25.22 2.8 37.1 39 -9.9 14.1
12:20 1025 30.27 854 25.22 2.8 37.1 38 -10.2 13.6
12:25 1025 30.27 854 25.22 3.1 37.5 38 -9.9 14.2
12:30 1025 30.27 854 25.22 3 37.5 38 -9.8 14.3
12:35 1025 30.27 854 25.22 3.2 37.7 37 -10.1 13.8
12:40 1025 30.27 854 25.22 3.2 37.8 40 -9.1 15.7
12:45 1025 30.27 854 25.22 3.2 37.8 39 -9.4 15.1
12:50 1024 30.24 854 25.22 3.6 38.5 36 -10 14
12:55 1024 30.24 854 25.22 3.6 38.4 36 -10.2 13.6
13:00 1024 30.24 853 25.19 4 39.2 36 -9.8 14.3
13:05 1024 30.24 853 25.19 3.6 38.6 35 -10.3 13.5
13:10 1024 30.24 853 25.19 3.1 37.6 39 -9.5 14.9
13:15 1024 30.24 853 25.19 3.1 37.7 37 -10.1 13.7
13:20 1024 30.24 853 25.19 3.7 38.6 36 -9.9 14.1
13:25 1024 30.24 853 25.19 3.6 38.5 36 -10 14
13:30 1024 30.24 853 25.19 3.5 38.3 35 -10.4 13.2
13:35 1024 30.24 853 25.19 3.3 37.9 33 -11.5 11.2
13:40 1024 30.24 853 25.19 2.9 37.3 36 -10.7 12.8
13:45 1024 30.24 853 25.19 3 37.3 34 -11.5 11.3
13:50 1024 30.24 853 25.19 2.8 37 37 -10.6 13
13:55 1024 30.24 853 25.19 3.3 38 36 -10.5 13.2
14:00 1024 30.24 853 25.19 3.4 38.2 34 -10.9 12.4
14:05 1024 30.24 853 25.19 3.4 38.1 34 -10.9 12.4
14:10 1023 30.21 853 25.19 3.4 38.1 35 -10.9 12.4
14:15 1023 30.21 853 25.19 3.5 38.3 33 -11.2 11.8
14:20 1023 30.21 853 25.19 3.5 38.4 33 -11.4 11.5
14:25 1023 30.21 853 25.19 3.3 37.9 33 -11.5 11.2
14:30 1023 30.21 852 25.16 3.4 38.1 33 -11.3 11.6
14:35 1023 30.21 852 25.16 3.4 38.2 32 -11.7 11
14:40 1023 30.21 852 25.16 3.3 38 33 -11.4 11.5
14:45 1023 30.21 852 25.16 3.4 38 33 -11.4 11.5
14:50 1023 30.21 852 25.16 3.4 38.1 33 -11.3 11.7
14:55 1023 30.21 852 25.16 3.3 37.9 35 -10.7 12.7
15:00 1023 30.21 852 25.16 3.3 38 35 -10.9 12.4
15:05 1023 30.21 852 25.16 3.4 38.2 33 -11.3 11.7
15:10 1023 30.21 852 25.16 3.5 38.2 34 -11 12.2
15:15 1023 30.21 852 25.16 3.6 38.5 34 -10.9 12.3
15:20 1023 30.21 852 25.16 3.7 38.6 33 -11.3 11.7
15:25 1023 30.21 852 25.16 3.6 38.5 33 -11.2 11.9
15:30 1023 30.21 852 25.16 3.7 38.6 34 -10.9 12.4
15:35 1023 30.21 852 25.16 3.6 38.5 33 -11.3 11.7
15:40 1023 30.21 852 25.16 3.5 38.4 33 -11.2 11.8
15:45 1023 30.21 852 25.16 3.8 38.8 33 -10.9 12.3
15:50 1023 30.21 852 25.16 3.6 38.5 34 -10.9 12.3
15:55 1023 30.21 852 25.16 3.7 38.7 33 -10.9 12.3
16:00 1023 30.21 852 25.16 3.9 39 34 -10.6 12.9
16:05 1023 30.21 852 25.16 3.9 39 34 -10.4 13.2
16:10 1023 30.21 852 25.16 3.6 38.5 36 -10.2 13.6
16:15 1023 30.21 852 25.16 3.5 38.4 35 -10.4 13.2
16:20 1023 30.21 852 25.16 3.8 38.9 35 -10.4 13.2
16:25 1023 30.21 852 25.16 4.1 39.4 35 -10.1 13.9
16:30 1023 30.21 852 25.16 4 39.2 33 -10.9 12.4
16:35 1023 30.21 852 25.16 4.1 39.4 34 -10.4 13.3
16:40 1023 30.21 852 25.16 4.1 39.4 34 -10.4 13.2
16:45 1023 30.21 852 25.16 3.9 39.1 35 -10.3 13.4
16:50 1023 30.21 852 25.16 3.7 38.7 35 -10.4 13.4
16:55 1023 30.21 852 25.16 3.8 38.8 34 -10.7 12.7
17:00 1023 30.21 852 25.16 3.8 38.8 34 -10.6 13
17:05 1023 30.21 852 25.16 3.8 38.9 35 -10.3 13.5
17:10 1023 30.21 852 25.16 3.7 38.6 34 -10.9 12.4
17:15 1023 30.21 852 25.16 3.4 38.1 35 -10.7 12.8
17:20 1023 30.21 852 25.16 3 37.4 37 -10.5 13.2
17:25 1023 30.21 852 25.16 2.6 36.6 40 -9.6 14.7
17:30 1022 30.18 852 25.16 1.7 35 42 -9.8 14.4
17:35 1022 30.18 852 25.16 1.5 34.7 43 -9.7 14.6
17:40 1022 30.18 852 25.16 1.5 34.7 43 -9.7 14.6
17:45 1022 30.18 852 25.16 1.4 34.5 40 -10.7 12.8
17:50 1022 30.18 852 25.16 1.4 34.6 40 -10.6 12.8
17:55 1022 30.18 852 25.16 1.3 34.4 42 -10.3 13.5
18:00 1022 30.18 852 25.16 1.2 34.2 42 -10.3 13.4
18:05 1022 30.18 852 25.16 1.1 34 42 -10.4 13.3
18:10 1022 30.18 852 25.16 1 33.8 42 -10.6 13
18:15 1023 30.21 852 25.16 0.9 33.6 43 -10.4 13.2
18:20 1022 30.18 852 25.16 0.8 33.5 44 -10.2 13.6
18:25 1022 30.18 852 25.16 0.6 33 44 -10.2 13.7
18:30 1023 30.21 852 25.16 0.3 32.6 46 -10.1 13.8
18:35 1023 30.21 852 25.16 0.1 32.2 47 -9.9 14.3
18:40 1022 30.18 852 25.16 -0.4 31.3 51 -9.3 15.3
18:45 1022 30.18 852 25.16 -1 30.3 53 -9.5 14.9
18:50 1022 30.18 851 25.13 -1.1 30 49 -10.4 13.3
18:55 1022 30.18 851 25.13 -0.6 31 49 -10.1 13.9
19:00 1022 30.18 851 25.13 -0.8 30.6 54 -9 15.9
19:05 1022 30.18 851 25.13 -1.5 29.4 55 -9.3 15.3
19:10 1022 30.18 851 25.13 -1.7 28.9 58 -9.1 15.7
19:15 1022 30.18 851 25.13 -1.9 28.5 56 -9.6 14.8
19:20 1022 30.18 851 25.13 -1.6 29.2 54 -9.7 14.6
19:25 1022 30.18 851 25.13 -1.4 29.4 54 -9.6 14.8
19:30 1022 30.18 851 25.13 -1.3 29.6 52 -10 14.1
19:35 1022 30.18 851 25.13 -1.3 29.7 51 -10.1 13.8
19:40 1022 30.18 851 25.13 -1.2 29.8 52 -9.8 14.3
19:45 1022 30.18 851 25.13 -1.3 29.6 52 -10 14
19:50 1022 30.18 851 25.13 -1.4 29.5 50 -10.4 13.2
19:55 1022 30.18 851 25.13 -1.2 29.8 51 -10.1 13.8
20:00 1022 30.18 851 25.13 -1.3 29.6 51 -10.3 13.5
20:05 1022 30.18 851 25.13 -1.4 29.5 52 -10 13.9
20:10 1022 30.18 851 25.13 -1.5 29.3 50 -10.6 12.9
20:15 1021 30.15 851 25.13 -1.2 29.8 48 -10.8 12.6
20:20 1021 30.15 851 25.13 -1.1 30.1 49 -10.6 13
20:25 1022 30.18 851 25.13 -1.2 29.9 51 -10 14
20:30 1022 30.18 851 25.13 -1.3 29.6 50 -10.5 13.2
20:35 1021 30.15 851 25.13 -1.5 29.4 51 -10.4 13.2
20:40 1022 30.18 851 25.13 -1.7 29 51 -10.6 13
20:45 1022 30.18 851 25.13 -1.5 29.4 49 -10.9 12.4
20:50 1022 30.18 851 25.13 -1.3 29.7 49 -10.7 12.8
20:55 1021 30.15 851 25.13 -1.3 29.6 51 -10.1 13.8
21:00 1021 30.15 851 25.13 -1.3 29.6 49 -10.6 12.9
21:05 1021 30.15 851 25.13 -1.5 29.3 50 -10.8 12.6
21:10 1021 30.15 851 25.13 -1.5 29.3 53 -10 14
21:15 1021 30.15 850 25.1 -1.8 28.8 53 -10.1 13.8
21:20 1021 30.15 850 25.1 -2 28.3 55 -9.9 14.2
21:25 1021 30.15 850 25.1 -2.1 28.3 52 -10.6 12.9
21:30 1021 30.15 850 25.1 -1.4 29.4 52 -10.2 13.7
21:35 1021 30.15 850 25.1 -1.7 28.9 52 -10.3 13.4
21:40 1021 30.15 850 25.1 -2.3 27.8 58 -9.6 14.8
21:45 1021 30.15 850 25.1 -3.2 26.3 63 -9.3 15.3
21:50 1021 30.15 850 25.1 -3.6 25.5 63 -9.7 14.5
21:55 1021 30.15 850 25.1 -3.6 25.5 61 -10.2 13.7
22:00 1021 30.15 850 25.1 -3.3 26 58 -10.5 13.1
22:05 1021 30.15 850 25.1 -2.9 26.7 58 -10.2 13.7
22:10 1021 30.15 850 25.1 -3.1 26.4 56 -10.6 12.9
22:15 1021 30.15 850 25.1 -2.8 26.9 53 -11.1 12
22:20 1021 30.15 850 25.1 -2.5 27.5 55 -10.5 13.2
22:25 1021 30.15 850 25.1 -2.8 27 57 -10.2 13.7
22:30 1021 30.15 850 25.1 -3.3 26.1 57 -10.5 13.1
22:35 1021 30.15 850 25.1 -3.1 26.4 55 -11 12.1
22:40 1021 30.15 850 25.1 -2.9 26.7 56 -10.6 12.9
22:45 1021 30.15 850 25.1 -3.3 26.1 59 -10.3 13.5
22:50 1021 30.15 850 25.1 -3.9 24.9 61 -10.4 13.2
22:55 1021 30.15 850 25.1 -3.8 25.2 57 -11.1 11.9
23:00 1021 30.15 850 25.1 -3.3 26.1 54 -11.4 11.6
23:05 1021 30.15 850 25.1 -2.8 27 52 -11.2 11.8
23:10 1021 30.15 850 25.1 -2.7 27.1 54 -10.8 12.6
23:15 1021 30.15 850 25.1 -3.3 26.1 58 -10.5 13.1
23:20 1021 30.15 850 25.1 -3.4 25.9 57 -10.6 12.8
23:25 1021 30.15 850 25.1 -3.7 25.3 61 -10.2 13.7
23:30 1021 30.15 850 25.1 -3.7 25.3 59 -10.6 12.9
23:35 1021 30.15 850 25.1 -3.3 26.1 57 -10.6 13
23:40 1021 30.15 850 25.1 -2.4 27.8 55 -10.3 13.5
23:45 1021 30.15 850 25.1 -2.8 26.9 58 -10.1 13.9
23:50 1021 30.15 850 25.1 -3.6 25.5 59 -10.5 13.1
23:55 1021 30.15 850 25.1 -3.8 25.2 59 -10.5 13
24:00 1021 30.15 850 25.1 -3.6 25.6 58 -10.7 12.7